Amelia City, Florida
Current Conditions -  °F | °C
As of 5:15 AM on Saturday 22 Nov 2014 (Local Time) from KFHB Reporting Station
Overcast Overcast  
Wind Chill: 68°   Ceiling: 5000
Heat Index: 68°   Visibility: 10mi
Dew Point: 61°   Wind: 9mph
Humidity: 78%   Direction: 30°NNE
Pressure: 30.3"   Gusts: NA
Location:  30.6056°N, 81.5268°W
Report Text: KFHB 221015Z AUTO 03008KT 10SM BKN050 OVC065 20/16 A3030 RMK AO1
Loading
Personal Weather Stations






























Interactive Weather Map New forecast layout! Learn more

10-Day Weather Forecast

Advertisements
Track Severe Weather on mobile